createdAt,value
2017-05-10T00:02:15.165Z,100554
2017-05-10T00:04:44.121Z,100553
2017-05-10T00:07:13.052Z,100555
2017-05-10T00:09:42.318Z,100556
2017-05-10T00:12:12.031Z,100546
2017-05-10T00:14:41.750Z,100538
2017-05-10T00:17:11.015Z,100539
2017-05-10T00:19:39.952Z,100541
2017-05-10T00:22:08.907Z,100541
2017-05-10T00:24:38.946Z,100539
2017-05-10T00:27:07.887Z,100532
2017-05-10T00:29:36.840Z,100537
2017-05-10T00:32:06.099Z,100533
2017-05-10T00:34:35.091Z,100516
2017-05-10T00:37:04.764Z,100518
2017-05-10T00:39:33.997Z,100507
2017-05-10T00:42:03.727Z,100503
2017-05-10T00:44:32.674Z,100495
2017-05-10T00:47:01.907Z,100495
2017-05-10T00:49:30.841Z,100497
2017-05-10T00:51:59.792Z,100489
2017-05-10T00:54:29.174Z,100481
2017-05-10T00:56:58.103Z,100486
2017-05-10T00:59:27.059Z,100482
2017-05-10T01:01:56.383Z,100488
2017-05-10T01:04:25.316Z,100476
2017-05-10T01:06:54.274Z,100477
2017-05-10T01:09:23.637Z,100469
2017-05-10T01:11:52.607Z,100474
2017-05-10T01:14:21.563Z,100480
2017-05-10T01:16:50.936Z,100477
2017-05-10T01:19:20.622Z,100470
2017-05-10T01:21:49.574Z,100470
2017-05-10T01:24:18.931Z,100463
2017-05-10T01:26:48.624Z,100465
2017-05-10T01:29:17.556Z,100452
2017-05-10T01:31:46.795Z,100456
2017-05-10T01:34:15.731Z,100455
2017-05-10T01:36:45.425Z,100442
2017-05-10T01:39:15.052Z,100440
2017-05-10T01:41:43.982Z,100435
2017-05-10T01:44:12.916Z,100432
2017-05-10T01:46:42.919Z,100435
2017-05-10T01:49:11.845Z,100437
2017-05-10T01:51:40.885Z,100430
2017-05-10T01:54:10.124Z,100430
2017-05-10T01:56:39.803Z,100413
2017-05-10T01:59:08.762Z,100419
2017-05-10T02:01:38.042Z,100419
2017-05-10T02:04:07.027Z,100414
2017-05-10T02:06:35.967Z,100421
2017-05-10T02:09:05.207Z,100411
2017-05-10T02:11:34.911Z,100412
2017-05-10T02:14:03.860Z,100415
2017-05-10T02:16:33.204Z,100416
2017-05-10T02:19:02.897Z,100417
2017-05-10T02:21:32.909Z,100409
2017-05-10T02:24:01.851Z,100405
2017-05-10T02:26:30.790Z,100408
2017-05-10T02:29:00.106Z,100405
2017-05-10T02:31:29.821Z,100403
2017-05-10T02:33:58.750Z,100396
2017-05-10T02:36:28.075Z,100392
2017-05-10T02:38:57.071Z,100394
2017-05-10T02:41:26.775Z,100389
2017-05-10T02:43:56.132Z,100398
2017-05-10T02:46:25.066Z,100385
2017-05-10T02:48:54.026Z,100383
2017-05-10T02:51:23.311Z,100380
2017-05-10T02:53:52.270Z,100374
2017-05-10T02:56:21.969Z,100372
2017-05-10T02:58:51.267Z,100363
2017-05-10T03:01:20.200Z,100366
2017-05-10T03:03:49.159Z,100366
2017-05-10T03:06:19.125Z,100353
2017-05-10T03:08:48.099Z,100358
2017-05-10T03:11:17.027Z,100358
2017-05-10T03:13:46.353Z,100359
2017-05-10T03:16:16.047Z,100356
2017-05-10T03:18:44.989Z,100350
2017-05-10T03:21:14.231Z,100337
2017-05-10T03:23:43.177Z,100331
2017-05-10T03:26:12.109Z,100338
2017-05-10T03:28:41.417Z,100333
2017-05-10T03:31:10.364Z,100340
2017-05-10T03:33:39.296Z,100330
2017-05-10T03:36:08.603Z,100325
2017-05-10T03:38:37.568Z,100326
2017-05-10T03:41:06.534Z,100320
2017-05-10T03:43:35.896Z,100320
2017-05-10T03:46:05.590Z,100311
2017-05-10T03:48:34.529Z,100317
2017-05-10T03:51:03.790Z,100315
2017-05-10T03:53:33.508Z,100318
2017-05-10T03:56:03.502Z,100320
2017-05-10T03:58:32.438Z,100314
2017-05-10T04:01:01.379Z,100313
2017-05-10T04:03:30.711Z,100314
2017-05-10T04:06:00.386Z,100307
2017-05-10T04:08:29.320Z,100309
2017-05-10T04:10:58.549Z,100320
2017-05-10T04:13:27.493Z,100319
2017-05-10T04:15:57.178Z,100321
2017-05-10T04:18:26.430Z,100313
2017-05-10T04:20:55.384Z,100319
2017-05-10T04:23:25.081Z,100309
2017-05-10T04:25:54.576Z,100317
2017-05-10T04:28:23.548Z,100323
2017-05-10T04:30:52.491Z,100314
2017-05-10T04:33:22.591Z,100315
2017-05-10T04:35:51.523Z,100319
2017-05-10T04:38:20.495Z,100318
2017-05-10T04:40:50.590Z,100315
2017-05-10T04:43:20.373Z,100309
2017-05-10T04:45:49.333Z,100320
2017-05-10T04:48:18.707Z,100315
2017-05-10T04:50:48.733Z,100313
2017-05-10T04:53:18.719Z,100308
2017-05-10T04:55:47.673Z,100311
2017-05-10T04:58:16.634Z,100309
2017-05-10T05:00:45.931Z,100316
2017-05-10T05:03:14.887Z,100313
2017-05-10T05:05:43.824Z,100311
2017-05-10T05:08:13.119Z,100311
2017-05-10T05:10:42.070Z,100305
2017-05-10T05:13:11.009Z,100310
2017-05-10T05:15:40.363Z,100313
2017-05-10T05:18:09.313Z,100315
2017-05-10T05:20:38.265Z,100306
2017-05-10T05:23:08.389Z,100310
2017-05-10T05:25:38.067Z,100312
2017-05-10T05:28:07.041Z,100306
2017-05-10T05:30:36.362Z,100315
2017-05-10T05:33:05.375Z,100303
2017-05-10T05:35:35.051Z,100307
2017-05-10T05:38:04.367Z,100305
2017-05-10T05:40:34.084Z,100304
2017-05-10T05:43:03.050Z,100297
2017-05-10T05:45:32.376Z,100294
2017-05-10T05:48:01.301Z,100301
2017-05-10T05:50:30.291Z,100305
2017-05-10T05:52:59.624Z,100298
2017-05-10T05:55:28.600Z,100303
2017-05-10T05:57:57.595Z,100292
2017-05-10T06:00:27.166Z,100293
2017-05-10T06:02:56.119Z,100289
2017-05-10T06:05:25.076Z,100307
2017-05-10T06:07:54.497Z,100291
2017-05-10T06:10:23.492Z,100292
2017-05-10T06:12:52.460Z,100308
2017-05-10T06:15:21.815Z,100299
2017-05-10T06:17:51.495Z,100306
2017-05-10T06:20:20.464Z,100303
2017-05-10T06:22:49.694Z,100303
2017-05-10T06:25:18.631Z,100305
2017-05-10T06:27:47.572Z,100304
2017-05-10T06:30:16.989Z,100301
2017-05-10T06:32:45.941Z,100294
2017-05-10T06:35:14.910Z,100293
2017-05-10T06:37:44.263Z,100294
2017-05-10T06:40:13.255Z,100305
2017-05-10T06:42:42.235Z,100298
2017-05-10T06:45:11.563Z,100300
2017-05-10T06:47:41.310Z,100308
2017-05-10T06:50:10.283Z,100303
2017-05-10T06:52:39.578Z,100302
2017-05-10T06:55:09.276Z,100294
2017-05-10T06:57:39.004Z,100293
2017-05-10T07:00:08.306Z,100296
2017-05-10T07:02:37.270Z,100290
2017-05-10T07:05:06.974Z,100285
2017-05-10T07:07:37.072Z,100288
2017-05-10T07:10:06.043Z,100292
2017-05-10T07:12:34.999Z,100289
2017-05-10T07:15:04.254Z,100288
2017-05-10T07:17:33.444Z,100288
2017-05-10T07:20:02.374Z,100289
2017-05-10T07:22:32.415Z,100286
2017-05-10T07:25:01.372Z,100292
2017-05-10T07:27:31.090Z,100281
2017-05-10T07:30:01.274Z,100283
2017-05-10T07:32:30.233Z,100284
2017-05-10T07:34:59.265Z,100277
2017-05-10T07:37:28.531Z,100280
2017-05-10T07:39:57.499Z,100271
2017-05-10T07:42:26.460Z,100271
2017-05-10T07:44:55.835Z,100276
2017-05-10T07:47:24.819Z,100269
2017-05-10T07:49:53.796Z,100263
2017-05-10T07:52:23.272Z,100266
2017-05-10T07:54:52.993Z,100270
2017-05-10T07:57:21.976Z,100271
2017-05-10T07:59:51.447Z,100269
2017-05-10T08:02:20.427Z,100262
2017-05-10T08:04:49.421Z,100267
2017-05-10T08:07:18.703Z,100264
2017-05-10T08:09:47.650Z,100268
2017-05-10T08:12:17.390Z,100268
2017-05-10T08:14:46.744Z,100257
2017-05-10T08:17:16.454Z,100261
2017-05-10T08:19:46.457Z,100256
2017-05-10T08:22:15.415Z,100262
2017-05-10T08:24:44.402Z,100253
2017-05-10T08:27:13.644Z,100256
2017-05-10T08:29:44.059Z,100252
2017-05-10T08:32:13.010Z,100257
2017-05-10T08:34:42.375Z,100252
2017-05-10T08:37:12.083Z,100263
2017-05-10T08:39:41.817Z,100259
2017-05-10T08:42:11.204Z,100256
2017-05-10T08:44:40.175Z,100260
2017-05-10T08:47:09.859Z,100253
2017-05-10T08:49:39.253Z,100260
2017-05-10T08:52:08.206Z,100254
2017-05-10T08:54:37.172Z,100255
2017-05-10T08:57:07.161Z,100252
2017-05-10T08:59:36.114Z,100245
2017-05-10T09:02:05.062Z,100253
2017-05-10T09:04:34.469Z,100256
2017-05-10T09:07:03.407Z,100256
2017-05-10T09:09:32.411Z,100253
2017-05-10T09:12:01.652Z,100252
2017-05-10T09:14:31.346Z,100252
2017-05-10T09:17:00.306Z,100247
2017-05-10T09:19:29.759Z,100248
2017-05-10T09:21:58.775Z,100244
2017-05-10T09:24:27.723Z,100243
2017-05-10T09:26:57.233Z,100249
2017-05-10T09:29:26.468Z,100252
2017-05-10T09:31:55.406Z,100247
2017-05-10T09:34:24.707Z,100252
2017-05-10T09:36:53.659Z,100253
2017-05-10T09:39:22.649Z,100250
2017-05-10T09:41:52.016Z,100245
2017-05-10T09:44:21.774Z,100238
2017-05-10T09:46:50.747Z,100234
2017-05-10T09:49:19.984Z,100236
2017-05-10T09:51:48.936Z,100242
2017-05-10T09:54:17.908Z,100238
2017-05-10T09:56:47.205Z,100235
2017-05-10T09:59:17.071Z,100231
2017-05-10T10:01:46.045Z,100228
2017-05-10T10:04:15.347Z,100225
2017-05-10T10:06:44.300Z,100230
2017-05-10T10:09:13.271Z,100228
2017-05-10T10:11:42.575Z,100224
2017-05-10T10:14:12.269Z,100218
2017-05-10T10:16:41.274Z,100219
2017-05-10T10:19:10.579Z,100224
2017-05-10T10:21:39.510Z,100231
2017-05-10T10:24:08.464Z,100231
2017-05-10T10:26:38.510Z,100224
2017-05-10T10:29:07.610Z,100231
2017-05-10T10:31:36.578Z,100240
2017-05-10T10:34:06.601Z,100242
2017-05-10T10:36:35.560Z,100239
2017-05-10T10:39:04.554Z,100233
2017-05-10T10:41:33.858Z,100225
2017-05-10T10:44:03.584Z,100225
2017-05-10T10:46:33.691Z,100226
2017-05-10T10:49:03.472Z,100226
2017-05-10T10:51:32.441Z,100227
2017-05-10T10:54:01.735Z,100234
2017-05-10T10:56:30.711Z,100227
2017-05-10T10:58:59.696Z,100224
2017-05-10T11:01:29.025Z,100231
2017-05-10T11:03:57.978Z,100224
2017-05-10T11:06:27.695Z,100226
2017-05-10T11:08:57.241Z,100223
2017-05-10T11:11:26.208Z,100224
2017-05-10T11:13:55.131Z,100222
2017-05-10T11:16:24.542Z,100228
2017-05-10T11:18:53.528Z,100227
2017-05-10T11:21:22.511Z,100227
2017-05-10T11:23:51.843Z,100234
2017-05-10T11:26:21.523Z,100226
2017-05-10T11:28:50.622Z,100227
2017-05-10T11:31:19.921Z,100223
2017-05-10T11:33:48.901Z,100227
2017-05-10T11:36:17.837Z,100225
2017-05-10T11:38:47.949Z,100227
2017-05-10T11:41:17.724Z,100213
2017-05-10T11:43:46.704Z,100213
2017-05-10T11:46:16.049Z,100213
2017-05-10T11:48:45.798Z,100213
2017-05-10T11:51:14.781Z,100213
2017-05-10T11:53:44.167Z,100204
2017-05-10T11:56:13.112Z,100212
2017-05-10T11:58:42.144Z,100206
2017-05-10T12:01:12.159Z,100202
2017-05-10T12:03:56.653Z,100204
2017-05-10T12:06:26.216Z,100200
2017-05-10T12:08:56.053Z,100195
2017-05-10T12:11:25.067Z,100196
2017-05-10T12:13:54.528Z,100195
2017-05-10T12:16:24.285Z,100191
2017-05-10T12:18:53.294Z,100195
2017-05-10T12:21:22.634Z,100199
2017-05-10T12:24:16.074Z,100194
2017-05-10T12:26:45.498Z,100205
2017-05-10T12:29:15.311Z,100197
2017-05-10T12:31:45.063Z,100201
2017-05-10T12:34:15.139Z,100205
2017-05-10T12:36:44.971Z,100201
2017-05-10T12:39:13.996Z,100201
2017-05-10T12:41:43.433Z,100198
2017-05-10T12:44:12.442Z,100197
2017-05-10T12:46:41.509Z,100191
2017-05-10T12:49:10.924Z,100191
2017-05-10T12:51:40.005Z,100181
2017-05-10T12:54:09.729Z,100188
2017-05-10T12:56:39.863Z,100193
2017-05-10T12:59:08.868Z,100188
2017-05-10T13:01:37.913Z,100188
2017-05-10T13:04:07.283Z,100186
2017-05-10T13:06:36.328Z,100189
2017-05-10T13:09:06.077Z,100185
2017-05-10T13:11:35.476Z,100191
2017-05-10T13:14:04.502Z,100186
2017-05-10T13:16:33.508Z,100184
2017-05-10T13:19:02.931Z,100183
2017-05-10T13:21:32.810Z,100182
2017-05-10T13:24:01.803Z,100181
2017-05-10T13:26:31.245Z,100179
2017-05-10T13:29:00.980Z,100176
2017-05-10T13:31:29.950Z,100179
2017-05-10T13:33:59.214Z,100169
2017-05-10T13:36:28.208Z,100173
2017-05-10T13:38:57.189Z,100164
2017-05-10T13:41:26.638Z,100170
2017-05-10T13:43:55.617Z,100174
2017-05-10T13:46:25.392Z,100173
2017-05-10T13:48:54.745Z,100168
2017-05-10T13:51:23.835Z,100164
2017-05-10T13:53:52.796Z,100175
2017-05-10T13:56:22.130Z,100165
2017-05-10T13:58:51.171Z,100163
2017-05-10T14:01:20.977Z,100158
2017-05-10T14:03:50.313Z,100167
2017-05-10T14:06:20.013Z,100177
2017-05-10T14:08:49.042Z,100177
2017-05-10T14:11:18.409Z,100156
2017-05-10T14:13:47.396Z,100166
2017-05-10T14:16:16.412Z,100153
2017-05-10T14:18:45.803Z,100159
2017-05-10T14:21:15.521Z,100150
2017-05-10T14:23:45.715Z,100149
2017-05-10T14:26:14.781Z,100143
2017-05-10T14:28:43.754Z,100131
2017-05-10T14:31:13.007Z,100152
2017-05-10T14:33:41.985Z,100143
2017-05-10T14:36:10.948Z,100140
2017-05-10T14:38:40.300Z,100151
2017-05-10T14:41:10.150Z,100148
2017-05-10T14:43:39.131Z,100159
2017-05-10T14:46:08.406Z,100155
2017-05-10T14:48:38.134Z,100147
2017-05-10T14:51:07.103Z,100145
2017-05-10T14:53:37.144Z,100142
2017-05-10T14:56:06.120Z,100149
2017-05-10T14:58:35.117Z,100148
2017-05-10T15:01:04.509Z,100147
2017-05-10T15:03:34.214Z,100150
2017-05-10T15:06:03.987Z,100135
2017-05-10T15:08:33.308Z,100136
2017-05-10T15:11:02.358Z,100133
2017-05-10T15:13:31.334Z,100127
2017-05-10T15:16:01.273Z,100121
2017-05-10T15:18:30.212Z,100119
2017-05-10T15:20:59.965Z,100121
2017-05-10T15:23:29.320Z,100126
2017-05-10T15:25:59.054Z,100124
2017-05-10T15:28:28.053Z,100124
2017-05-10T15:30:57.487Z,100126
2017-05-10T15:33:27.251Z,100119
2017-05-10T15:35:56.213Z,100117
2017-05-10T15:38:25.567Z,100114
2017-05-10T15:40:54.576Z,100114
2017-05-10T15:43:23.579Z,100116
2017-05-10T15:45:53.024Z,100103
2017-05-10T15:48:22.014Z,100113
2017-05-10T15:50:51.710Z,100103
2017-05-10T15:53:21.255Z,100095
2017-05-10T15:55:50.259Z,100105
2017-05-10T15:58:19.258Z,100104
2017-05-10T16:00:48.637Z,100101
2017-05-10T16:03:17.632Z,100097
2017-05-10T16:05:46.595Z,100099
2017-05-10T16:08:16.704Z,100105
2017-05-10T16:10:46.440Z,100096
2017-05-10T16:13:15.429Z,100096
2017-05-10T16:15:44.813Z,100102
2017-05-10T16:18:14.522Z,100101
2017-05-10T16:20:43.546Z,100090
2017-05-10T16:23:12.904Z,100097
2017-05-10T16:25:41.848Z,100100
2017-05-10T16:28:10.846Z,100103
2017-05-10T16:30:40.295Z,100103
2017-05-10T16:33:09.278Z,100105
2017-05-10T16:35:38.347Z,100100
2017-05-10T16:38:07.655Z,100103
2017-05-10T16:40:36.739Z,100102
2017-05-10T16:43:05.820Z,100095
2017-05-10T16:45:35.278Z,100094
2017-05-10T16:48:04.271Z,100097
2017-05-10T16:50:33.987Z,100098
2017-05-10T16:53:04.191Z,100097
2017-05-10T16:55:33.168Z,100095
2017-05-10T16:58:02.209Z,100086
2017-05-10T17:00:31.680Z,100080
2017-05-10T17:03:00.633Z,100083
2017-05-10T17:05:29.666Z,100085
2017-05-10T17:07:59.016Z,100081
2017-05-10T17:10:28.267Z,100079
2017-05-10T17:12:57.247Z,100079
2017-05-10T17:15:26.657Z,100080
2017-05-10T17:17:56.380Z,100081
2017-05-10T17:20:25.381Z,100079
2017-05-10T17:22:54.778Z,100074
2017-05-10T17:25:24.159Z,100080
2017-05-10T17:27:53.107Z,100063
2017-05-10T17:30:23.288Z,100069
2017-05-10T17:32:53.000Z,100061
2017-05-10T17:35:22.138Z,100063
2017-05-10T17:37:51.699Z,100060
2017-05-10T17:40:20.709Z,100056
2017-05-10T17:42:49.717Z,100053
2017-05-10T17:45:19.026Z,100057
2017-05-10T17:47:48.112Z,100055
2017-05-10T17:50:17.233Z,100047
2017-05-10T17:52:46.531Z,100045
2017-05-10T17:55:16.247Z,100040
2017-05-10T17:57:45.314Z,100046
2017-05-10T18:00:14.676Z,100050
2017-05-10T18:02:43.767Z,100060
2017-05-10T18:05:12.800Z,100061
2017-05-10T18:07:42.198Z,100056
2017-05-10T18:10:11.219Z,100063
2017-05-10T18:12:40.212Z,100058
2017-05-10T18:15:09.582Z,100055
2017-05-10T18:17:38.609Z,100059
2017-05-10T18:20:07.585Z,100058
2017-05-10T18:22:36.926Z,100059
2017-05-10T18:25:06.639Z,100051
2017-05-10T18:27:35.599Z,100050
2017-05-10T18:30:05.108Z,100053
2017-05-10T18:32:34.948Z,100049
2017-05-10T18:35:03.966Z,100047
2017-05-10T18:37:33.458Z,100053
2017-05-10T18:40:02.474Z,100055
2017-05-10T18:42:31.474Z,100052
2017-05-10T18:45:00.851Z,100057
2017-05-10T18:47:29.880Z,100054
2017-05-10T18:49:58.875Z,100052
2017-05-10T18:52:28.372Z,100061
2017-05-10T18:54:57.456Z,100057
2017-05-10T18:57:27.138Z,100049
2017-05-10T18:59:56.582Z,100055
2017-05-10T19:02:25.684Z,100056
2017-05-10T19:04:54.786Z,100062
2017-05-10T19:07:24.221Z,100052
2017-05-10T19:09:53.345Z,100052
2017-05-10T19:12:22.432Z,100057
2017-05-10T19:14:51.954Z,100059
2017-05-10T19:17:21.090Z,100060
2017-05-10T19:19:50.179Z,100057
2017-05-10T19:22:19.597Z,100058
2017-05-10T19:24:48.665Z,100054
2017-05-10T19:27:17.721Z,100056
2017-05-10T19:29:47.182Z,100059
2017-05-10T19:32:16.258Z,100063
2017-05-10T19:34:46.113Z,100065
2017-05-10T19:37:15.542Z,100063
2017-05-10T19:39:44.645Z,100065
2017-05-10T19:42:13.724Z,100065
2017-05-10T19:44:43.137Z,100076
2017-05-10T19:47:12.176Z,100065
2017-05-10T19:49:41.963Z,100074
2017-05-10T19:52:11.524Z,100070
2017-05-10T19:54:41.220Z,100076
2017-05-10T19:57:10.262Z,100074
2017-05-10T19:59:39.759Z,100077
2017-05-10T20:02:08.853Z,100083
2017-05-10T20:04:37.894Z,100082
2017-05-10T20:07:07.335Z,100084
2017-05-10T20:09:36.357Z,100087
2017-05-10T20:12:05.350Z,100074
2017-05-10T20:14:34.715Z,100073
2017-05-10T20:17:03.724Z,100082
2017-05-10T20:19:32.786Z,100074
2017-05-10T20:22:02.273Z,100077
2017-05-10T20:24:31.416Z,100076
2017-05-10T20:27:00.432Z,100079
2017-05-10T20:29:29.874Z,100067
2017-05-10T20:31:58.924Z,100065
2017-05-10T20:34:27.894Z,100078
2017-05-10T20:36:57.196Z,100073
2017-05-10T20:39:26.245Z,100062
2017-05-10T20:41:55.226Z,100069
2017-05-10T20:44:24.176Z,100065
2017-05-10T20:46:53.208Z,100069
2017-05-10T20:49:22.620Z,100066
2017-05-10T20:51:51.674Z,100062
2017-05-10T20:54:20.738Z,100064
2017-05-10T20:56:49.731Z,100063
2017-05-10T20:59:18.684Z,100066
2017-05-10T21:01:48.441Z,100074
2017-05-10T21:04:17.455Z,100063
2017-05-10T21:06:46.892Z,100060
2017-05-10T21:09:15.865Z,100057
2017-05-10T21:11:45.615Z,100058
2017-05-10T21:14:15.188Z,100056
2017-05-10T21:16:44.927Z,100058
2017-05-10T21:19:13.903Z,100053
2017-05-10T21:21:43.360Z,100061
2017-05-10T21:24:12.359Z,100059
2017-05-10T21:26:41.327Z,100058
2017-05-10T21:29:10.658Z,100042
2017-05-10T21:31:39.624Z,100055
2017-05-10T21:34:08.768Z,100054
2017-05-10T21:36:38.920Z,100056
2017-05-10T21:39:07.866Z,100051
2017-05-10T21:41:37.592Z,100046
2017-05-10T21:44:07.007Z,100054
2017-05-10T21:46:35.959Z,100053
2017-05-10T21:49:04.904Z,100058
2017-05-10T21:51:34.209Z,100056
2017-05-10T21:54:03.175Z,100053
2017-05-10T21:56:32.124Z,100052
2017-05-10T21:59:01.134Z,100059
2017-05-10T22:01:30.851Z,100051
2017-05-10T22:04:00.566Z,100056
2017-05-10T22:06:29.581Z,100061
2017-05-10T22:08:58.933Z,100057
2017-05-10T22:11:27.871Z,100061
2017-05-10T22:13:56.863Z,100056
2017-05-10T22:16:26.223Z,100058
2017-05-10T22:18:55.355Z,100059
2017-05-10T22:21:24.307Z,100054
2017-05-10T22:23:53.636Z,100059
2017-05-10T22:26:22.612Z,100061
2017-05-10T22:28:51.587Z,100056
2017-05-10T22:31:21.159Z,100061
2017-05-10T22:33:50.229Z,100053
2017-05-10T22:36:19.183Z,100055
2017-05-10T22:38:48.621Z,100053
2017-05-10T22:41:17.570Z,100047
2017-05-10T22:43:46.668Z,100047
2017-05-10T22:46:15.990Z,100051
2017-05-10T22:48:44.995Z,100050
2017-05-10T22:51:13.981Z,100042
2017-05-10T22:53:43.380Z,100054
2017-05-10T22:56:12.373Z,100050
2017-05-10T22:58:41.323Z,100051
2017-05-10T23:01:10.618Z,100044
2017-05-10T23:03:39.675Z,100038
2017-05-10T23:06:08.688Z,100047
2017-05-10T23:08:38.200Z,100045
2017-05-10T23:11:07.158Z,100046
2017-05-10T23:13:36.106Z,100049
2017-05-10T23:16:05.390Z,100042
2017-05-10T23:18:34.395Z,100051
2017-05-10T23:21:03.331Z,100046
2017-05-10T23:23:32.571Z,100045
2017-05-10T23:26:01.521Z,100036
2017-05-10T23:28:30.557Z,100032
2017-05-10T23:30:59.885Z,100036
2017-05-10T23:33:29.647Z,100037
2017-05-10T23:35:58.602Z,100035
2017-05-10T23:38:27.612Z,100039
2017-05-10T23:40:56.615Z,100030
2017-05-10T23:43:25.638Z,100025
2017-05-10T23:45:54.652Z,100030
2017-05-10T23:48:23.586Z,100030
2017-05-10T23:50:52.583Z,100032
2017-05-10T23:53:21.633Z,100029
2017-05-10T23:55:50.596Z,100027
2017-05-10T23:58:19.591Z,100025
